高松空港の過去48時間の天気

高松空港 (Takamatsu)

現在時刻: 10/24 12:14 JST (10/24 03:14 UTC) 以下の時間は現地時間です。

過去48時間のMETAR気象情報
時間 風向 風速(m/s) 視程 気温(℃) 湿度(%) 気圧(hPa) 天気現象
24 11:11 東北東 5 8000m 18 100 1015 しゅう雨
24 11:00 東北東 6 9000m 18 100 1015 弱いしゅう雨
24 10:35 東北東 6 9000m 18 100 1015 弱いしゅう雨
24 10:20 東北東 6 9000m 18 100 1016 弱いしゅう雨
24 10:00 東北東 5 9000m 18 100 1016 弱いしゅう雨
24 09:00 東北東 5 9000m 18 94 1016 弱いしゅう雨
24 08:00 北東 3 6000m 18 94 1017 弱いしゅう雨 もや
24 07:41 北東 4 4500m 18 94 1017 しゅう雨 もや
24 07:00 東北東 4 10km以上 18 94 1016
24 06:20 東北東 5 10km以上 18 94 1016
RJOT 240211Z 07010KT 8000 SHRA FEW001 SCT003 BKN005 18/18 Q1015 RMK 1ST001 3ST003 5ST005 A2999
RJOT 240200Z 06011KT 9000 -SHRA FEW001 SCT003 BKN006 18/18 Q1015
RJOT 240135Z 06012KT 9000 -SHRA FEW001 SCT003 BKN006 18/18 Q1015 RMK 1ST001 3ST003 5ST006 A3000
RJOT 240120Z 07011KT 9000 -SHRA FEW001 SCT005 BKN009 18/18 Q1016 RMK 1ST001 3ST005 5ST009 A3000
RJOT 240100Z 07010KT 9000 -SHRA FEW001 SCT020 BKN060 18/18 Q1016
RJOT 240000Z 07010KT 9000 -SHRA FEW003 SCT025 BKN060 18/17 Q1016
RJOT 232300Z 05006KT 020V080 6000 -SHRA BR FEW003 SCT020 BKN040 18/17 Q1017
RJOT 232241Z 05007KT 4500 SHRA BR FEW003 SCT020 BKN040 18/17 Q1017 RMK 1ST003 3CU020 5CU040 A3003
RJOT 232200Z 07007KT 9999 FEW005 SCT020 BKN090 18/17 Q1016
RJOT 232120Z 07009KT 9999 FEW005 SCT025 BKN110 18/17 Q1016 RMK 1ST005 3CU025 5AC110 A3000